Time;durP1;ratioP1;P1;durP2;ratioP2;P2;SDS_P1;SDS_P2;PMS_P1;PMS_P2;Temp;Humidity;BMP_temperature;BMP_pressure;BME280_temperature;BME280_humidity;BME280_pressure;Samples;Min_cycle;Max_cycle;Signal;HPM_P1;HPM_P2
2021/11/09 00:00:46;;;;;;;10.13;3.55;;;10.80;93.40;;;;;;5007377;28;20085;-70
2021/11/09 00:03:12;;;;;;;8.85;3.95;;;10.80;93.40;;;;;;5009502;28;20038;-70
2021/11/09 00:05:49;;;;;;;13.23;3.40;;;10.70;93.40;;;;;;5007098;28;20112;-71
2021/11/09 00:08:20;;;;;;;10.00;3.47;;;10.70;93.50;;;;;;5009943;28;20038;-71
2021/11/09 00:10:46;;;;;;;9.13;3.47;;;10.70;93.70;;;;;;5017976;28;20120;-71
2021/11/09 00:13:12;;;;;;;7.97;3.60;;;10.70;93.80;;;;;;5010416;28;20033;-71
2021/11/09 00:15:39;;;;;;;13.45;4.53;;;10.70;93.70;;;;;;5013900;28;20045;-70
2021/11/09 00:18:05;;;;;;;9.60;4.07;;;10.70;93.70;;;;;;5013981;28;20070;-71
2021/11/09 00:20:32;;;;;;;7.30;3.70;;;10.70;93.70;;;;;;5009646;28;20485;-71
2021/11/09 00:23:00;;;;;;;8.40;4.13;;;10.70;93.70;;;;;;5014973;28;20135;-72
2021/11/09 00:25:27;;;;;;;11.75;4.47;;;10.70;93.70;;;;;;5013062;28;20104;-72
2021/11/09 00:27:52;;;;;;;11.82;4.00;;;10.70;93.80;;;;;;5012950;28;20385;-71
2021/11/09 00:30:20;;;;;;;8.38;3.20;;;10.70;93.70;;;;;;5015133;28;20029;-70
2021/11/09 00:32:46;;;;;;;10.75;4.45;;;10.70;93.70;;;;;;5018026;28;20030;-72
2021/11/09 00:35:15;;;;;;;9.10;4.10;;;10.70;93.80;;;;;;5008827;28;20034;-71
2021/11/09 00:37:42;;;;;;;9.10;4.22;;;10.70;93.80;;;;;;5012328;28;20055;-71
2021/11/09 00:40:09;;;;;;;14.02;3.80;;;10.70;93.80;;;;;;5013511;28;20689;-70
2021/11/09 00:42:35;;;;;;;12.25;3.70;;;10.80;93.80;;;;;;5016725;28;20037;-71
2021/11/09 00:45:03;;;;;;;6.85;3.53;;;10.80;93.70;;;;;;5008751;28;20041;-72
2021/11/09 00:47:28;;;;;;;14.18;3.63;;;10.70;93.70;;;;;;5011712;28;20124;-71
2021/11/09 00:49:54;;;;;;;15.77;4.85;;;10.70;93.80;;;;;;5012084;28;20028;-71
2021/11/09 00:52:20;;;;;;;8.10;3.22;;;10.80;93.80;;;;;;5011239;28;20029;-71
2021/11/09 00:54:45;;;;;;;7.57;3.53;;;10.80;93.80;;;;;;5012847;28;20820;-71
2021/11/09 00:57:11;;;;;;;11.93;3.80;;;10.70;93.80;;;;;;5011037;28;20033;-71
2021/11/09 00:59:37;;;;;;;12.23;4.20;;;10.70;93.90;;;;;;5013774;28;20041;-72
2021/11/09 01:02:03;;;;;;;9.43;3.80;;;10.70;93.90;;;;;;5012642;28;20444;-71
2021/11/09 01:04:29;;;;;;;9.88;4.60;;;10.70;93.70;;;;;;5014591;28;20030;-71
2021/11/09 01:06:55;;;;;;;7.35;4.00;;;10.70;93.80;;;;;;5007843;28;20111;-72
2021/11/09 01:09:22;;;;;;;9.85;3.67;;;10.70;93.90;;;;;;5010117;28;20029;-71
2021/11/09 01:11:50;;;;;;;10.05;3.30;;;10.70;93.90;;;;;;5010230;28;20998;-71
2021/11/09 01:14:16;;;;;;;8.80;3.88;;;10.70;93.90;;;;;;5008831;28;20038;-71
2021/11/09 01:16:42;;;;;;;14.25;3.95;;;10.70;93.90;;;;;;5005266;28;20046;-71
2021/11/09 01:19:09;;;;;;;9.57;4.13;;;10.80;94.00;;;;;;5009489;28;20037;-71
2021/11/09 01:21:36;;;;;;;8.45;3.80;;;10.80;93.90;;;;;;5013272;28;20097;-71
2021/11/09 01:24:03;;;;;;;6.88;3.28;;;10.80;93.90;;;;;;5009182;28;20065;-71
2021/11/09 01:26:29;;;;;;;6.75;3.38;;;10.80;93.80;;;;;;5001622;28;20171;-71
2021/11/09 01:28:57;;;;;;;8.70;3.85;;;10.80;93.90;;;;;;5015052;28;20037;-72
2021/11/09 01:31:23;;;;;;;11.20;3.72;;;10.80;94.20;;;;;;5006295;28;20088;-72
2021/11/09 01:33:50;;;;;;;12.02;3.60;;;10.80;94.00;;;;;;5011709;28;20061;-71
2021/11/09 01:36:16;;;;;;;10.85;4.07;;;10.80;93.90;;;;;;5010430;28;20038;-71
2021/11/09 01:38:42;;;;;;;6.93;3.30;;;10.80;93.80;;;;;;5013632;28;20387;-71
2021/11/09 01:41:10;;;;;;;9.35;3.35;;;10.80;93.80;;;;;;5011427;28;20044;-71
2021/11/09 01:43:38;;;;;;;14.75;4.88;;;10.80;93.70;;;;;;5005890;28;20065;-72
2021/11/09 01:46:06;;;;;;;14.95;4.68;;;10.80;93.50;;;;;;5015970;28;20448;-71
2021/11/09 01:48:31;;;;;;;21.65;4.80;;;10.80;93.60;;;;;;5011118;28;20516;-71
2021/11/09 01:51:02;;;;;;;12.70;4.50;;;10.80;93.60;;;;;;5009690;28;20030;-71
2021/11/09 01:53:29;;;;;;;17.23;4.45;;;10.80;93.60;;;;;;5011642;28;20057;-71
2021/11/09 01:55:57;;;;;;;12.07;4.22;;;10.80;93.60;;;;;;4988477;28;20044;-71
2021/11/09 01:58:24;;;;;;;14.40;4.07;;;10.80;93.60;;;;;;5004480;28;20033;-71
2021/11/09 02:01:04;;;;;;;10.77;5.13;;;10.80;93.60;;;;;;5008061;28;20041;-71
2021/11/09 02:03:30;;;;;;;12.00;4.25;;;10.80;93.50;;;;;;5007801;28;20410;-71
2021/11/09 02:05:56;;;;;;;14.68;4.25;;;10.80;93.60;;;;;;5006371;28;20028;-71
2021/11/09 02:08:24;;;;;;;15.02;5.13;;;10.70;93.50;;;;;;5010266;28;20887;-71
2021/11/09 02:10:51;;;;;;;10.52;5.15;;;10.70;93.50;;;;;;5008263;28;20133;-70
2021/11/09 02:13:19;;;;;;;14.70;3.95;;;10.80;93.60;;;;;;5011229;28;20026;-71
2021/11/09 02:15:46;;;;;;;13.00;4.28;;;10.70;93.60;;;;;;5010406;28;20042;-71
2021/11/09 02:18:14;;;;;;;10.32;4.25;;;10.70;93.70;;;;;;5013936;28;20112;-71
2021/11/09 02:20:58;;;;;;;9.02;4.22;;;10.70;93.80;;;;;;5010633;28;20061;-72
2021/11/09 02:23:26;;;;;;;10.75;4.70;;;10.70;93.70;;;;;;5009464;28;20038;-72
2021/11/09 02:25:52;;;;;;;13.90;5.13;;;10.70;93.70;;;;;;5010358;28;20195;-71
2021/11/09 02:28:17;;;;;;;14.10;5.10;;;10.70;93.60;;;;;;5010422;28;20037;-72
2021/11/09 02:30:44;;;;;;;12.98;4.93;;;10.70;93.60;;;;;;5013715;28;20036;-71
2021/11/09 02:33:10;;;;;;;10.43;4.63;;;10.60;93.60;;;;;;5006798;28;20843;-72
2021/11/09 02:35:36;;;;;;;12.65;4.90;;;10.60;93.60;;;;;;5001840;28;20120;-71
2021/11/09 02:38:03;;;;;;;15.25;5.07;;;10.50;93.80;;;;;;5002811;28;20049;-71
2021/11/09 02:40:29;;;;;;;8.57;4.63;;;10.50;93.80;;;;;;5006311;28;20873;-71
2021/11/09 02:42:59;;;;;;;10.80;4.45;;;10.60;93.90;;;;;;5003272;28;20026;-70
2021/11/09 02:48:33;;;;;;;18.40;5.03;;;10.50;94.10;;;;;;5001296;28;20042;-71
2021/11/09 02:51:07;;;;;;;13.60;4.35;;;10.50;93.90;;;;;;5008133;28;20042;-71
2021/11/09 02:53:38;;;;;;;7.28;3.97;;;10.60;93.80;;;;;;5009017;28;20124;-71
2021/11/09 03:06:42;;;;;;;11.15;4.78;;;10.50;94.00;;;;;;5010123;28;20037;-71
2021/11/09 03:09:55;;;;;;;11.82;4.60;;;10.60;93.90;;;;;;5007676;28;20046;-71
2021/11/09 03:12:01;;;;;;;8.05;4.78;;;10.60;93.80;;;;;;5011045;28;20049;-72
2021/11/09 03:14:27;;;;;;;7.70;4.53;;;10.60;93.80;;;;;;5012851;28;20165;-71
2021/11/09 03:16:56;;;;;;;12.82;5.07;;;10.50;93.80;;;;;;5016416;28;20041;-71
2021/11/09 03:46:36;;;;;;;12.90;5.10;;;10.60;93.70;;;;;;5011506;28;20680;-69
2021/11/09 03:49:04;;;;;;;8.40;5.78;;;10.60;93.70;;;;;;5007386;28;20042;-68
2021/11/09 03:51:30;;;;;;;10.32;5.00;;;10.50;93.80;;;;;;5014648;28;20034;-67
2021/11/09 03:54:00;;;;;;;9.93;5.20;;;10.50;93.90;;;;;;5014693;28;20040;-68
2021/11/09 04:02:18;;;;;;;10.35;5.18;;;10.40;93.90;;;;;;5016555;28;20042;-67
2021/11/09 04:04:57;;;;;;;12.27;5.30;;;10.40;94.00;;;;;;5010170;28;20048;-68
2021/11/09 04:10:26;;;;;;;8.35;4.70;;;10.30;94.00;;;;;;5007563;28;20041;-69
2021/11/09 04:13:10;;;;;;;12.10;5.15;;;10.20;94.10;;;;;;5014621;28;20033;-70
2021/11/09 04:21:05;;;;;;;14.93;5.85;;;10.20;94.30;;;;;;5004705;28;20801;-70
2021/11/09 04:26:33;;;;;;;10.88;5.47;;;10.10;94.20;;;;;;5005004;28;20591;-69
2021/11/09 04:31:59;;;;;;;10.52;5.03;;;10.00;94.30;;;;;;5003295;28;20133;-70
2021/11/09 04:41:14;;;;;;;12.20;5.50;;;10.00;94.50;;;;;;5001317;28;20752;-68
2021/11/09 04:53:38;;;;;;;12.27;6.10;;;10.10;94.50;;;;;;5008754;28;20048;-69
2021/11/09 05:10:11;;;;;;;19.55;6.78;;;10.20;94.20;;;;;;5004136;28;20056;-67
2021/11/09 05:12:37;;;;;;;13.18;6.30;;;10.20;94.20;;;;;;5006652;28;20691;-70
2021/11/09 05:15:03;;;;;;;13.18;6.18;;;10.20;94.20;;;;;;4987596;28;20048;-69
2021/11/09 05:17:29;;;;;;;13.60;6.03;;;10.20;94.20;;;;;;5008960;28;20046;-67
2021/11/09 05:19:55;;;;;;;10.23;6.00;;;10.20;94.20;;;;;;5026278;28;20032;-68
2021/11/09 05:22:21;;;;;;;12.57;6.75;;;10.20;94.10;;;;;;5027164;28;20033;-69
2021/11/09 05:24:46;;;;;;;8.52;5.93;;;10.20;94.10;;;;;;5009969;28;20497;-68
2021/11/09 05:27:15;;;;;;;14.55;6.55;;;10.20;94.00;;;;;;5013488;28;20132;-68
2021/11/09 05:29:44;;;;;;;12.60;6.13;;;10.20;94.00;;;;;;5016137;28;20375;-67
2021/11/09 05:32:10;;;;;;;17.38;6.43;;;10.20;94.00;;;;;;5017587;28;20033;-68
2021/11/09 05:34:35;;;;;;;11.43;5.97;;;10.20;94.00;;;;;;5023593;28;20038;-68
2021/11/09 05:37:02;;;;;;;14.30;6.50;;;10.30;94.00;;;;;;5025004;28;20044;-68
2021/11/09 05:39:43;;;;;;;14.65;6.50;;;10.30;94.00;;;;;;5008575;28;20041;-67
2021/11/09 05:42:09;;;;;;;18.35;6.55;;;10.30;94.00;;;;;;5020291;28;20124;-68
2021/11/09 05:44:35;;;;;;;18.60;7.18;;;10.30;93.80;;;;;;5022884;28;20038;-68
2021/11/09 05:47:01;;;;;;;20.73;9.13;;;10.20;93.90;;;;;;5015873;28;20038;-68
2021/11/09 05:49:27;;;;;;;22.63;10.77;;;10.20;93.90;;;;;;5018538;28;20037;-68
2021/11/09 05:51:53;;;;;;;20.75;10.55;;;10.20;94.00;;;;;;5023837;28;20179;-68
2021/11/09 05:54:19;;;;;;;19.80;9.65;;;10.20;93.70;;;;;;5011451;28;20037;-68
2021/11/09 05:56:44;;;;;;;19.63;8.85;;;10.20;93.70;;;;;;5026868;28;20044;-68
2021/11/09 05:59:10;;;;;;;15.52;9.02;;;10.20;93.80;;;;;;5019290;28;20036;-68
2021/11/09 06:01:36;;;;;;;18.58;10.77;;;10.20;93.80;;;;;;5015712;28;20043;-67
2021/11/09 06:04:02;;;;;;;32.97;15.95;;;10.20;93.80;;;;;;5011364;28;20073;-68
2021/11/09 06:06:28;;;;;;;30.50;15.73;;;10.20;93.80;;;;;;5014599;28;20084;-68
2021/11/09 06:08:53;;;;;;;73.72;35.92;;;10.20;93.80;;;;;;5018528;28;20065;-68
2021/11/09 06:11:19;;;;;;;69.07;37.85;;;10.20;93.80;;;;;;5020156;28;20124;-69
2021/11/09 06:13:46;;;;;;;61.58;35.72;;;10.20;93.70;;;;;;5015708;28;20029;-68
2021/11/09 06:16:12;;;;;;;50.75;35.38;;;10.20;93.80;;;;;;5008753;28;20096;-68
2021/11/09 06:18:37;;;;;;;30.13;19.33;;;10.20;93.80;;;;;;5007660;28;20033;-68
2021/11/09 06:21:03;;;;;;;22.73;15.68;;;10.20;93.80;;;;;;5018590;28;20037;-69
2021/11/09 06:23:29;;;;;;;13.68;10.13;;;10.30;93.80;;;;;;5023423;28;20200;-68
2021/11/09 06:25:55;;;;;;;18.40;9.10;;;10.30;93.70;;;;;;5020278;28;20119;-69
2021/11/09 06:28:21;;;;;;;13.75;8.20;;;10.30;93.70;;;;;;5020898;28;20033;-68
2021/11/09 06:30:49;;;;;;;14.13;6.20;;;10.30;93.70;;;;;;5022667;28;20705;-68
2021/11/09 06:33:15;;;;;;;19.73;7.40;;;10.30;93.40;;;;;;5011429;28;20055;-69
2021/11/09 06:35:41;;;;;;;19.58;7.28;;;10.30;93.50;;;;;;5004333;28;20029;-68
2021/11/09 06:38:07;;;;;;;13.40;6.43;;;10.20;93.30;;;;;;5016215;28;20053;-68
2021/11/09 06:40:33;;;;;;;14.10;7.28;;;10.30;93.40;;;;;;5015325;28;20075;-69
2021/11/09 06:42:59;;;;;;;22.88;8.05;;;10.20;93.50;;;;;;5023761;28;20807;-69
2021/11/09 06:45:25;;;;;;;19.42;8.90;;;10.20;93.50;;;;;;5018484;28;20030;-68
2021/11/09 06:47:52;;;;;;;13.43;6.60;;;10.20;93.60;;;;;;5011585;28;20025;-69
2021/11/09 06:50:19;;;;;;;21.42;8.48;;;10.20;93.60;;;;;;5010733;28;20337;-69
2021/11/09 06:52:45;;;;;;;15.75;7.55;;;10.30;93.60;;;;;;5014287;28;20022;-69
2021/11/09 06:55:11;;;;;;;18.33;8.20;;;10.30;93.60;;;;;;5016492;28;20889;-69
2021/11/09 06:57:37;;;;;;;16.40;7.47;;;10.30;93.50;;;;;;5019616;28;20043;-69
2021/11/09 07:00:06;;;;;;;13.60;7.30;;;10.40;93.40;;;;;;5011852;28;20468;-70
2021/11/09 07:02:34;;;;;;;13.95;7.32;;;10.40;93.50;;;;;;5017945;28;20094;-68
2021/11/09 07:05:00;;;;;;;21.65;8.65;;;10.50;93.30;;;;;;5007978;28;20041;-68
2021/11/09 07:07:25;;;;;;;23.67;7.82;;;10.50;93.10;;;;;;5018333;28;20041;-67
2021/11/09 07:09:51;;;;;;;14.40;7.72;;;10.50;93.10;;;;;;5015260;28;20037;-68
2021/11/09 07:12:17;;;;;;;12.15;6.95;;;10.50;93.00;;;;;;5017987;28;20033;-68
2021/11/09 07:14:43;;;;;;;12.48;7.30;;;10.50;93.10;;;;;;5020693;28;20040;-68
2021/11/09 07:17:09;;;;;;;14.25;6.82;;;10.50;93.00;;;;;;5019669;28;20379;-68
2021/11/09 07:19:36;;;;;;;18.05;7.00;;;10.50;93.30;;;;;;5007743;28;20048;-68
2021/11/09 07:22:02;;;;;;;13.88;6.18;;;10.50;93.00;;;;;;5011656;28;20095;-70
2021/11/09 07:24:31;;;;;;;13.10;6.55;;;10.50;93.10;;;;;;5013397;28;21067;-70
2021/11/09 07:26:57;;;;;;;11.35;5.75;;;10.50;93.20;;;;;;5022544;28;20040;-69
2021/11/09 07:29:23;;;;;;;12.75;5.85;;;10.60;93.10;;;;;;5021522;28;20041;-69
2021/11/09 07:31:52;;;;;;;21.25;7.32;;;10.60;93.00;;;;;;5007714;28;20033;-68
2021/11/09 07:34:18;;;;;;;20.73;6.95;;;10.70;92.70;;;;;;5010256;28;20049;-70
2021/11/09 07:36:44;;;;;;;14.73;6.30;;;10.70;92.70;;;;;;5017042;28;20028;-70
2021/11/09 07:39:09;;;;;;;10.20;5.45;;;10.70;92.60;;;;;;5003888;28;20490;-67
2021/11/09 07:41:35;;;;;;;13.55;6.00;;;10.70;92.80;;;;;;5008373;28;20175;-70
2021/11/09 07:44:03;;;;;;;12.07;5.75;;;10.70;92.70;;;;;;5020330;28;20116;-70
2021/11/09 07:46:30;;;;;;;13.10;5.57;;;10.80;92.70;;;;;;5018309;28;20041;-69
2021/11/09 07:48:56;;;;;;;9.73;5.18;;;10.80;92.80;;;;;;5013799;28;20026;-68
2021/11/09 07:51:22;;;;;;;10.80;5.18;;;10.80;92.70;;;;;;5012044;28;20040;-70
2021/11/09 07:53:49;;;;;;;14.27;5.28;;;10.90;92.60;;;;;;5010981;28;20029;-71
2021/11/09 07:56:21;;;;;;;11.60;5.50;;;10.90;92.60;;;;;;5011781;28;20065;-70
2021/11/09 08:01:32;;;;;;;13.38;5.93;;;10.80;92.40;;;;;;5012322;28;20102;-70
2021/11/09 08:07:11;;;;;;;15.00;6.15;;;11.00;92.30;;;;;;5022519;28;20037;-70
2021/11/09 08:09:29;;;;;;;10.57;5.45;;;11.00;92.50;;;;;;5019325;28;20049;-70
2021/11/09 08:12:02;;;;;;;16.73;6.63;;;11.00;92.00;;;;;;5015802;28;20059;-71
2021/11/09 08:14:29;;;;;;;16.27;7.13;;;11.00;91.60;;;;;;5018054;28;20378;-70
2021/11/09 08:16:55;;;;;;;16.27;6.70;;;10.90;92.00;;;;;;5018219;28;20064;-70
2021/11/09 08:19:21;;;;;;;12.98;6.25;;;11.00;92.10;;;;;;5019473;28;20828;-70
2021/11/09 08:21:49;;;;;;;16.45;7.22;;;11.10;92.10;;;;;;5016276;28;20129;-70
2021/11/09 08:24:17;;;;;;;14.60;7.30;;;11.10;91.90;;;;;;5023797;28;20060;-71
2021/11/09 08:26:44;;;;;;;15.00;6.85;;;11.10;91.70;;;;;;5026906;28;20873;-70
2021/11/09 08:29:10;;;;;;;13.50;6.40;;;11.20;91.80;;;;;;5020354;28;20029;-70
2021/11/09 08:31:41;;;;;;;15.07;7.43;;;11.20;91.80;;;;;;5015727;28;20034;-69
2021/11/09 08:34:07;;;;;;;11.85;6.53;;;11.30;91.90;;;;;;5017070;28;20044;-70
2021/11/09 08:36:33;;;;;;;16.70;6.80;;;11.30;91.80;;;;;;5021067;28;20029;-70
2021/11/09 08:39:01;;;;;;;16.63;6.93;;;11.40;91.50;;;;;;5028671;28;20048;-70
2021/11/09 08:41:36;;;;;;;11.30;6.13;;;11.40;91.50;;;;;;5017328;28;20077;-70
2021/11/09 08:44:16;;;;;;;24.65;7.93;;;11.50;91.30;;;;;;5027461;28;20116;-76
2021/11/09 08:46:54;;;;;;;16.05;6.43;;;11.60;91.20;;;;;;5003795;28;20049;-70
2021/11/09 08:49:22;;;;;;;17.53;6.73;;;11.70;91.10;;;;;;5020167;28;20033;-69
2021/11/09 08:51:50;;;;;;;10.55;5.40;;;11.80;90.90;;;;;;5020327;28;20071;-70
2021/11/09 08:54:23;;;;;;;10.48;5.45;;;11.90;90.70;;;;;;5022553;28;20044;-70
2021/11/09 08:57:08;;;;;;;12.63;5.93;;;12.10;90.70;;;;;;5023501;28;20693;-69
2021/11/09 09:05:06;;;;;;;19.40;8.40;;;12.50;89.40;;;;;;5003482;28;20065;-70
2021/11/09 09:07:33;;;;;;;15.07;6.75;;;12.60;87.80;;;;;;5023427;28;20587;-70
2021/11/09 09:09:59;;;;;;;15.38;7.28;;;12.60;87.00;;;;;;5014226;28;20492;-70
2021/11/09 09:12:27;;;;;;;13.43;6.40;;;12.70;87.00;;;;;;5012529;28;20037;-70
2021/11/09 09:14:54;;;;;;;17.27;8.32;;;12.60;85.20;;;;;;5016880;28;20060;-69
2021/11/09 09:17:21;;;;;;;19.08;7.30;;;12.70;86.00;;;;;;5014084;28;20083;-66
2021/11/09 09:20:01;;;;;;;12.27;6.82;;;12.70;85.90;;;;;;5011629;28;20041;-68
2021/11/09 09:22:34;;;;;;;11.82;5.70;;;12.80;86.30;;;;;;5003353;28;20110;-67
2021/11/09 09:25:17;;;;;;;17.60;8.07;;;12.90;85.90;;;;;;5017439;28;20055;-67
2021/11/09 09:30:32;;;;;;;12.48;6.55;;;13.00;85.40;;;;;;5019087;28;20091;-68
2021/11/09 09:57:14;;;;;;;17.45;6.47;;;14.00;81.20;;;;;;5010963;28;20056;-69
2021/11/09 09:59:43;;;;;;;16.23;6.53;;;14.00;80.10;;;;;;5013714;28;20038;-68
2021/11/09 10:02:19;;;;;;;21.35;8.70;;;14.20;80.70;;;;;;5019100;28;20100;-69
2021/11/09 10:04:51;;;;;;;;;;;14.30;79.30;;;;;;5022860;28;20137;-69
2021/11/09 10:07:39;;;;;;;23.35;8.75;;;14.30;78.00;;;;;;5000212;28;19913;-71
2021/11/09 10:10:11;;;;;;;19.17;6.78;;;14.20;78.00;;;;;;5013226;28;20038;-71
2021/11/09 10:12:40;;;;;;;10.45;5.00;;;14.10;77.70;;;;;;5009591;28;20029;-71
2021/11/09 10:15:11;;;;;;;13.27;4.90;;;14.20;78.20;;;;;;5011400;28;20038;-70
2021/11/09 10:17:40;;;;;;;16.50;6.40;;;14.40;78.20;;;;;;5008040;28;20046;-69
2021/11/09 10:20:31;;;;;;;22.40;7.22;;;14.60;76.80;;;;;;5011704;28;20070;-68
2021/11/09 10:23:11;;;;;;;10.50;4.68;;;14.80;76.70;;;;;;5015979;28;20163;-67
2021/11/09 10:25:36;;;;;;;28.17;18.33;;;14.80;76.10;;;;;;5008642;28;20052;-67
2021/11/09 10:28:05;;;;;;;17.30;6.35;;;15.10;75.90;;;;;;5017319;28;20042;-71
2021/11/09 10:30:41;;;;;;;12.77;5.05;;;15.20;74.10;;;;;;5020737;28;20029;-71
2021/11/09 10:33:11;;;;;;;17.00;7.28;;;15.40;74.20;;;;;;5011834;28;20068;-70
2021/11/09 10:35:37;;;;;;;19.65;6.07;;;15.60;72.90;;;;;;5010565;28;20033;-71
2021/11/09 10:38:05;;;;;;;10.15;4.65;;;15.60;70.50;;;;;;5019421;28;20515;-70
2021/11/09 10:40:42;;;;;;;9.10;4.20;;;15.70;71.40;;;;;;5012691;28;20057;-71
2021/11/09 10:43:10;;;;;;;13.25;5.10;;;15.80;71.60;;;;;;5006735;28;20064;-70
2021/11/09 10:45:38;;;;;;;9.93;2.85;;;15.90;70.40;;;;;;4998161;28;20037;-65
2021/11/09 10:48:10;;;;;;;9.38;3.28;;;15.90;70.20;;;;;;5009483;28;20034;-80
2021/11/09 10:50:39;;;;;;;10.10;3.13;;;15.90;69.90;;;;;;5014033;28;20033;-73
2021/11/09 10:53:17;;;;;;;9.93;3.92;;;15.90;70.20;;;;;;5014855;28;20096;-77
2021/11/09 11:04:09;;;;;;;8.50;2.85;;;15.50;71.10;;;;;;5010499;28;20116;-79
2021/11/09 11:06:37;;;;;;;16.50;5.95;;;15.40;71.30;;;;;;5007414;28;20045;-74
2021/11/09 11:09:12;;;;;;;7.80;2.72;;;15.20;71.10;;;;;;5014091;28;20029;-69
2021/11/09 11:11:51;;;;;;;5.53;2.00;;;15.20;71.60;;;;;;5013270;28;20049;-76
2021/11/09 11:14:22;;;;;;;6.75;2.30;;;15.10;70.40;;;;;;5020503;28;20033;-71
2021/11/09 11:17:11;;;;;;;9.43;2.58;;;15.10;70.30;;;;;;5014389;28;20145;-69
2021/11/09 11:19:55;;;;;;;9.75;2.45;;;15.00;70.90;;;;;;5015076;28;20041;-75
2021/11/09 11:22:28;;;;;;;4.80;2.05;;;14.90;71.20;;;;;;5017400;28;20081;-71
2021/11/09 11:24:56;;;;;;;9.15;2.70;;;14.70;71.90;;;;;;5011613;28;20038;-70
2021/11/09 11:27:26;;;;;;;10.68;2.33;;;14.60;72.30;;;;;;5010709;28;20103;-69
2021/11/09 11:29:53;;;;;;;8.45;1.80;;;14.60;72.90;;;;;;5019020;28;20454;-69
2021/11/09 11:32:22;;;;;;;7.22;1.90;;;14.50;74.40;;;;;;5007556;28;20067;-68
2021/11/09 11:34:50;;;;;;;7.85;2.40;;;14.50;72.10;;;;;;5007845;28;20086;-69
2021/11/09 11:37:19;;;;;;;9.00;2.53;;;14.40;72.10;;;;;;5008035;28;20540;-69
2021/11/09 11:39:47;;;;;;;6.28;1.85;;;14.50;73.20;;;;;;5008857;28;20034;-71
2021/11/09 11:42:17;;;;;;;6.97;2.35;;;14.60;73.10;;;;;;5013831;28;20033;-72
2021/11/09 11:44:53;;;;;;;6.53;2.97;;;14.60;72.70;;;;;;5009645;28;20188;-73
2021/11/09 11:47:21;;;;;;;6.93;3.22;;;14.70;73.10;;;;;;5008289;28;20809;-73
2021/11/09 11:49:52;;;;;;;7.88;2.70;;;14.80;72.40;;;;;;5007673;28;20029;-72
2021/11/09 11:52:20;;;;;;;4.30;1.70;;;14.70;71.60;;;;;;5014079;28;20073;-71
2021/11/09 11:54:48;;;;;;;13.00;2.20;;;14.70;72.00;;;;;;5009001;28;20029;-72
2021/11/09 11:57:26;;;;;;;11.73;2.70;;;14.70;73.00;;;;;;5013179;28;20029;-74
2021/11/09 11:59:52;;;;;;;8.18;2.90;;;14.60;73.60;;;;;;5019177;28;20080;-70
2021/11/09 12:02:33;;;;;;;19.92;6.68;;;14.60;72.10;;;;;;5011333;28;20030;-78
2021/11/09 12:04:59;;;;;;;13.13;4.68;;;14.60;73.20;;;;;;5013067;28;20148;-73
2021/11/09 12:07:52;;;;;;;9.02;2.17;;;14.50;71.60;;;;;;5014821;28;20022;-73
2021/11/09 12:10:18;;;;;;;6.45;1.65;;;14.50;72.50;;;;;;5015928;28;20037;-74
2021/11/09 12:13:02;;;;;;;5.55;1.42;;;14.50;73.10;;;;;;5010956;28;20073;-75
2021/11/09 12:15:57;;;;;;;7.20;1.50;;;14.50;71.50;;;;;;5019590;28;20228;-74
2021/11/09 12:18:32;;;;;;;5.47;1.13;;;14.30;71.70;;;;;;5017534;28;20513;-73
2021/11/09 12:21:00;;;;;;;4.05;1.27;;;14.10;73.50;;;;;;5022023;28;20116;-72
2021/11/09 12:23:30;;;;;;;5.30;1.60;;;13.80;74.20;;;;;;5011229;28;20087;-70
2021/11/09 12:25:56;;;;;;;8.13;2.85;;;13.60;73.00;;;;;;5024671;28;20033;-71
2021/11/09 12:28:37;;;;;;;10.27;3.28;;;13.40;75.40;;;;;;5017829;28;20033;-73
2021/11/09 12:31:15;;;;;;;9.93;1.48;;;13.30;74.70;;;;;;5022271;28;20069;-73
2021/11/09 12:33:49;;;;;;;5.30;1.38;;;13.30;74.70;;;;;;5011527;28;20079;-76
2021/11/09 12:36:16;;;;;;;2.78;1.50;;;13.40;74.60;;;;;;5014598;28;20786;-76
2021/11/09 12:38:53;;;;;;;11.70;2.85;;;13.50;75.00;;;;;;5007304;28;20033;-78
2021/11/09 12:41:23;;;;;;;;;;;13.40;74.00;;;;;;5007383;28;20060;-73
2021/11/09 12:43:50;;;;;;;7.65;2.45;;;13.50;74.10;;;;;;5019894;28;19966;-79
2021/11/09 12:46:31;;;;;;;12.55;3.60;;;13.50;74.10;;;;;;5028632;28;20043;-80
2021/11/09 12:49:01;;;;;;;7.40;2.80;;;13.60;74.70;;;;;;4985376;28;20030;-71
2021/11/09 12:51:38;;;;;;;9.82;2.03;;;13.80;75.00;;;;;;5007314;28;20121;-74
2021/11/09 12:54:24;;;;;;;3.83;1.38;;;13.90;73.20;;;;;;5025048;28;20140;-72
2021/11/09 12:56:55;;;;;;;6.57;1.48;;;14.00;73.40;;;;;;5012103;28;20153;-67
2021/11/09 12:59:31;;;;;;;2.15;1.00;;;14.10;75.40;;;;;;5018835;28;20033;-70
2021/11/09 13:10:05;;;;;;;5.50;1.25;;;14.20;73.90;;;;;;5009115;28;20072;-70
2021/11/09 13:12:33;;;;;;;3.75;1.20;;;14.30;73.20;;;;;;5012881;28;20087;-68
2021/11/09 13:15:06;;;;;;;5.25;1.50;;;14.40;72.00;;;;;;5013806;28;20068;-68
2021/11/09 13:17:50;;;;;;;10.00;2.67;;;14.60;71.50;;;;;;5016366;28;20044;-70
2021/11/09 13:20:34;;;;;;;6.05;1.35;;;14.70;69.20;;;;;;5017354;28;20505;-72
2021/11/09 13:23:20;;;;;;;6.03;1.40;;;14.80;68.20;;;;;;5020990;28;20629;-69
2021/11/09 13:25:46;;;;;;;4.13;1.05;;;14.80;67.00;;;;;;5011398;28;20044;-71
2021/11/09 13:28:12;;;;;;;6.28;1.60;;;14.70;67.80;;;;;;5016509;28;20029;-70
2021/11/09 13:30:40;;;;;;;7.90;1.33;;;14.70;67.70;;;;;;5004849;28;20030;-71
2021/11/09 13:33:08;;;;;;;6.40;1.83;;;14.50;68.60;;;;;;5012491;28;20025;-74
2021/11/09 13:35:45;;;;;;;6.90;1.55;;;14.10;69.60;;;;;;5021798;28;20058;-70
2021/11/09 13:38:20;;;;;;;3.05;1.08;;;13.80;70.30;;;;;;5017301;28;21071;-72
2021/11/09 13:40:50;;;;;;;7.05;1.15;;;13.60;70.70;;;;;;5014646;28;20038;-74
2021/11/09 13:43:19;;;;;;;3.22;1.10;;;13.50;70.30;;;;;;5022762;28;20041;-71
2021/11/09 13:45:45;;;;;;;6.40;1.60;;;13.30;71.60;;;;;;5010182;28;20045;-76
2021/11/09 13:48:21;;;;;;;5.60;1.05;;;13.30;72.10;;;;;;5012266;28;20470;-74
2021/11/09 13:50:51;;;;;;;3.50;1.23;;;13.20;73.00;;;;;;5019861;28;20043;-69
2021/11/09 13:53:36;;;;;;;2.28;1.15;;;13.10;73.60;;;;;;5015565;28;20060;-71
2021/11/09 13:56:04;;;;;;;3.95;1.00;;;13.10;73.30;;;;;;5003696;28;20041;-73
2021/11/09 13:58:30;;;;;;;5.47;1.60;;;13.10;73.80;;;;;;5013303;28;20219;-75
2021/11/09 14:01:01;;;;;;;3.58;1.38;;;13.00;74.00;;;;;;5013673;28;20040;-69
2021/11/09 14:03:43;;;;;;;3.95;1.13;;;13.00;73.70;;;;;;5011040;28;20038;-76
2021/11/09 14:09:09;;;;;;;4.47;1.10;;;12.90;76.00;;;;;;5012125;28;20398;-77
2021/11/09 14:17:00;;;;;;;5.63;1.50;;;12.80;75.20;;;;;;5000375;28;20076;-74
2021/11/09 14:19:31;;;;;;;6.75;1.48;;;12.70;74.30;;;;;;5016595;28;20041;-77
2021/11/09 14:21:58;;;;;;;3.40;1.25;;;12.70;74.60;;;;;;5006660;28;20025;-76
2021/11/09 14:24:27;;;;;;;5.03;1.10;;;12.70;74.80;;;;;;5005221;28;20092;-75
2021/11/09 14:27:14;;;;;;;2.05;1.00;;;12.60;76.00;;;;;;5017140;28;20030;-70
2021/11/09 14:29:51;;;;;;;;;;;12.60;76.80;;;;;;5006504;28;20037;-72
2021/11/09 14:32:26;;;;;;;3.97;1.00;;;12.60;76.00;;;;;;5006704;28;19913;-71
2021/11/09 14:34:59;;;;;;;5.53;1.20;;;12.50;76.90;;;;;;5010237;28;20111;-69
2021/11/09 14:37:37;;;;;;;3.42;1.17;;;12.40;76.90;;;;;;5009768;28;20038;-74
2021/11/09 14:40:10;;;;;;;3.40;1.08;;;12.40;77.70;;;;;;5021378;28;20099;-74
2021/11/09 14:42:57;;;;;;;5.03;1.15;;;12.30;77.80;;;;;;5017582;28;20489;-74
2021/11/09 14:45:34;;;;;;;4.15;1.38;;;12.30;78.20;;;;;;5015854;28;20176;-74
2021/11/09 14:48:17;;;;;;;5.78;1.50;;;12.20;78.40;;;;;;5017903;28;20033;-77
2021/11/09 14:50:52;;;;;;;2.47;1.30;;;12.10;79.90;;;;;;5020054;28;20048;-75
2021/11/09 14:53:36;;;;;;;3.08;1.10;;;12.00;79.90;;;;;;5022759;28;20034;-73
2021/11/09 14:56:13;;;;;;;1.98;0.90;;;11.90;80.60;;;;;;5004186;28;20512;-72
2021/11/09 14:58:49;;;;;;;5.50;1.10;;;11.80;82.20;;;;;;5003117;28;20064;-75
2021/11/09 15:01:20;;;;;;;1.90;0.75;;;11.70;82.70;;;;;;5012529;28;20033;-69
2021/11/09 15:04:21;;;;;;;2.85;1.00;;;11.60;83.00;;;;;;5007949;28;20124;-71
2021/11/09 15:12:47;;;;;;;3.75;2.58;;;11.40;83.50;;;;;;5016094;28;20041;-74
2021/11/09 15:26:15;;;;;;;4.30;1.85;;;10.90;85.40;;;;;;5017009;28;20815;-72
2021/11/09 15:31:20;;;;;;;5.78;1.45;;;10.70;86.00;;;;;;5011921;28;20037;-71
2021/11/09 15:33:49;;;;;;;3.47;1.40;;;10.60;85.90;;;;;;5009110;28;20346;-70
2021/11/09 15:38:49;;;;;;;4.07;1.27;;;10.50;86.40;;;;;;5013236;28;20079;-74
2021/11/09 15:41:15;;;;;;;4.82;1.25;;;10.40;86.30;;;;;;5008392;28;20030;-72
2021/11/09 15:43:41;;;;;;;1.90;1.23;;;10.40;87.00;;;;;;5009739;28;20040;-70
2021/11/09 15:46:09;;;;;;;2.80;1.30;;;10.30;87.00;;;;;;5014394;28;20067;-72
2021/11/09 15:48:36;;;;;;;4.28;1.25;;;10.20;86.80;;;;;;5019893;28;20025;-77
2021/11/09 15:51:02;;;;;;;5.57;1.40;;;10.10;86.80;;;;;;5013295;28;20044;-73